Time;durP1;ratioP1;P1;durP2;ratioP2;P2;SDS_P1;SDS_P2;PMS_P1;PMS_P2;Temp;Humidity;BMP_temperature;BMP_pressure;BME280_temperature;BME280_humidity;BME280_pressure;Samples;Min_cycle;Max_cycle;Signal;HPM_P1;HPM_P2
2021/12/11 00:02:12;;;;;;;4.72;2.15;;;;;;;;;;5034134;28;20060;-70
2021/12/11 00:04:42;;;;;;;6.35;2.67;;;;;;;;;;5034196;28;20049;-71
2021/12/11 00:07:11;;;;;;;4.55;2.10;;;;;;;;;;5018828;28;20347;-70
2021/12/11 00:09:41;;;;;;;6.20;2.33;;;;;;;;;;5013657;28;20053;-69
2021/12/11 00:12:17;;;;;;;4.53;2.07;;;;;;;;;;5014213;28;20068;-72
2021/12/11 00:14:54;;;;;;;5.13;2.30;;;;;;;;;;5014451;28;20051;-70
2021/12/11 00:17:24;;;;;;;5.32;2.10;;;;;;;;;;5014143;28;20495;-71
2021/12/11 00:19:51;;;;;;;4.00;1.97;;;;;;;;;;5012964;28;20053;-71
2021/12/11 00:22:23;;;;;;;3.60;1.58;;;;;;;;;;5013983;28;20637;-71
2021/12/11 00:24:51;;;;;;;3.65;1.83;;;;;;;;;;5013899;28;20133;-70
2021/12/11 00:27:22;;;;;;;4.57;1.90;;;;;;;;;;5013792;28;20502;-71
2021/12/11 00:29:50;;;;;;;4.32;2.00;;;;;;;;;;5013608;28;20061;-72
2021/12/11 00:32:23;;;;;;;4.78;1.83;;;;;;;;;;5013958;28;20056;-70
2021/12/11 00:34:55;;;;;;;5.97;2.17;;;;;;;;;;5014284;28;20137;-70
2021/12/11 00:37:24;;;;;;;3.55;1.48;;;;;;;;;;5013838;28;20060;-70
2021/12/11 00:39:57;;;;;;;4.05;1.80;;;;;;;;;;5014466;28;20057;-72
2021/12/11 00:42:33;;;;;;;3.75;1.90;;;;;;;;;;5013819;28;20042;-70
2021/12/11 00:45:03;;;;;;;4.53;1.95;;;;;;;;;;5014082;28;20084;-71
2021/12/11 00:47:32;;;;;;;4.10;1.70;;;;;;;;;;5013991;28;20054;-70
2021/12/11 00:50:02;;;;;;;3.80;1.85;;;;;;;;;;5013390;28;20041;-69
2021/12/11 00:52:31;;;;;;;4.03;1.83;;;;;;;;;;5013387;28;20077;-70
2021/12/11 00:54:59;;;;;;;4.32;1.60;;;;;;;;;;5013412;28;20483;-69
2021/12/11 00:57:28;;;;;;;4.57;2.33;;;;;;;;;;5013533;28;20153;-69
2021/12/11 01:00:13;;;;;;;3.38;1.77;;;;;;;;;;5013330;28;20054;-69
2021/12/11 01:02:41;;;;;;;3.05;1.70;;;;;;;;;;5012632;28;20104;-69
2021/12/11 01:05:11;;;;;;;6.35;2.17;;;;;;;;;;5013407;28;20042;-70
2021/12/11 01:07:39;;;;;;;2.42;1.65;;;;;;;;;;5013122;28;20050;-69
2021/12/11 01:10:10;;;;;;;3.00;1.67;;;;;;;;;;5013536;28;20410;-70
2021/12/11 01:12:45;;;;;;;3.45;1.40;;;;;;;;;;5013294;28;20069;-70
2021/12/11 01:15:19;;;;;;;4.03;1.80;;;;;;;;;;5013210;28;20100;-69
2021/12/11 01:18:00;;;;;;;3.97;1.60;;;;;;;;;;5012941;28;20053;-69
2021/12/11 01:20:35;;;;;;;3.47;1.52;;;;;;;;;;5013556;28;20514;-70
2021/12/11 01:23:13;;;;;;;4.00;1.52;;;;;;;;;;5013412;28;20057;-70
2021/12/11 01:25:41;;;;;;;3.20;1.42;;;;;;;;;;5013458;28;20571;-69
2021/12/11 01:28:10;;;;;;;2.50;1.67;;;;;;;;;;5013424;28;20384;-70
2021/12/11 01:30:40;;;;;;;4.13;1.73;;;;;;;;;;5012642;28;20049;-69
2021/12/11 01:33:09;;;;;;;3.50;1.42;;;;;;;;;;5013434;28;20136;-69
2021/12/11 01:35:36;;;;;;;2.85;1.52;;;;;;;;;;5013194;28;20049;-69
2021/12/11 01:38:08;;;;;;;2.58;1.38;;;;;;;;;;5012796;28;20152;-69
2021/12/11 01:40:37;;;;;;;3.58;1.70;;;;;;;;;;5012713;28;20054;-70
2021/12/11 01:43:08;;;;;;;4.40;1.60;;;;;;;;;;5012791;28;20414;-71
2021/12/11 01:45:37;;;;;;;;;;;;;;;;;;5013175;28;20049;-70
2021/12/11 01:48:05;;;;;;;3.22;1.50;;;;;;;;;;5012535;28;19921;-69
2021/12/11 01:50:36;;;;;;;4.25;1.75;;;;;;;;;;5012744;28;20487;-71
2021/12/11 01:53:09;;;;;;;3.25;1.48;;;;;;;;;;5012797;28;20128;-69
2021/12/11 01:55:40;;;;;;;2.58;1.40;;;;;;;;;;5012642;28;20054;-70
2021/12/11 01:58:10;;;;;;;3.45;1.70;;;;;;;;;;5025224;22;20137;-66
2021/12/11 02:00:42;;;;;;;3.45;1.27;;;;;;;;;;5011785;28;20144;-66
2021/12/11 02:03:14;;;;;;;2.75;1.67;;;;;;;;;;5012323;28;20455;-67
2021/12/11 02:05:42;;;;;;;3.85;1.40;;;;;;;;;;5012225;28;20053;-66
2021/12/11 02:08:13;;;;;;;3.25;1.45;;;;;;;;;;5012068;28;20050;-67
2021/12/11 02:10:43;;;;;;;4.05;1.90;;;;;;;;;;5011964;28;20100;-65
2021/12/11 02:13:17;;;;;;;3.90;1.70;;;;;;;;;;5011967;28;20057;-66
2021/12/11 02:15:49;;;;;;;3.72;1.65;;;;;;;;;;5012226;28;20046;-65
2021/12/11 02:18:19;;;;;;;3.25;1.55;;;;;;;;;;5011972;28;20046;-67
2021/12/11 02:20:51;;;;;;;3.95;1.60;;;;;;;;;;5012040;28;20483;-67
2021/12/11 02:23:20;;;;;;;3.50;1.52;;;;;;;;;;5011869;28;20057;-67
2021/12/11 02:25:53;;;;;;;5.28;1.80;;;;;;;;;;5011912;28;20068;-67
2021/12/11 02:28:24;;;;;;;4.57;1.98;;;;;;;;;;5011968;28;20054;-66
2021/12/11 02:31:01;;;;;;;3.75;1.75;;;;;;;;;;5011780;28;20537;-67
2021/12/11 02:33:33;;;;;;;2.67;1.60;;;;;;;;;;5011656;28;20108;-67
2021/12/11 02:36:10;;;;;;;4.90;2.03;;;;;;;;;;5011746;28;20124;-67
2021/12/11 02:38:44;;;;;;;4.47;1.67;;;;;;;;;;5012106;28;20514;-67
2021/12/11 02:41:17;;;;;;;4.20;2.00;;;;;;;;;;5011566;28;20046;-67
2021/12/11 02:43:48;;;;;;;3.28;1.80;;;;;;;;;;5013299;28;20117;-67
2021/12/11 02:46:18;;;;;;;3.88;2.00;;;;;;;;;;5015280;28;20060;-67
2021/12/11 02:48:48;;;;;;;3.85;1.88;;;;;;;;;;5015404;28;20104;-65
2021/12/11 02:51:19;;;;;;;6.07;1.95;;;;;;;;;;5015194;28;20064;-67
2021/12/11 02:53:53;;;;;;;4.80;2.00;;;;;;;;;;5015315;28;20057;-66
2021/12/11 02:56:24;;;;;;;2.83;1.60;;;;;;;;;;5015390;28;20058;-66
2021/12/11 02:58:56;;;;;;;3.45;1.67;;;;;;;;;;5015022;28;20046;-67
2021/12/11 03:01:29;;;;;;;4.03;2.13;;;;;;;;;;5015149;28;20141;-66
2021/12/11 03:04:04;;;;;;;4.72;2.10;;;;;;;;;;5015172;28;20140;-66
2021/12/11 03:06:38;;;;;;;3.60;2.17;;;;;;;;;;5014916;28;20053;-66
2021/12/11 03:09:09;;;;;;;5.68;1.70;;;;;;;;;;5014848;28;20049;-66
2021/12/11 03:11:36;;;;;;;;;;;;;;;;;;5015359;28;20052;-65
2021/12/11 03:14:04;;;;;;;3.22;1.70;;;;;;;;;;5015200;28;19928;-66
2021/12/11 03:16:34;;;;;;;4.05;1.73;;;;;;;;;;5014992;28;20491;-67
2021/12/11 03:19:03;;;;;;;3.95;1.80;;;;;;;;;;5015062;28;20057;-66
2021/12/11 03:21:30;;;;;;;4.05;1.90;;;;;;;;;;5014617;28;20359;-67
2021/12/11 03:23:58;;;;;;;3.22;1.67;;;;;;;;;;5014483;28;20049;-66
2021/12/11 03:26:27;;;;;;;6.53;1.80;;;;;;;;;;5014764;28;20049;-66
2021/12/11 03:28:55;;;;;;;3.67;1.70;;;;;;;;;;5014541;28;20057;-67
2021/12/11 03:31:22;;;;;;;4.03;1.90;;;;;;;;;;5014617;28;20410;-67
2021/12/11 03:33:52;;;;;;;3.95;2.05;;;;;;;;;;5014570;28;20046;-65
2021/12/11 03:36:22;;;;;;;3.83;1.60;;;;;;;;;;5014363;28;20415;-67
2021/12/11 03:38:52;;;;;;;3.38;1.65;;;;;;;;;;5014747;28;20486;-66
2021/12/11 03:41:20;;;;;;;5.47;2.17;;;;;;;;;;5014359;28;20042;-67
2021/12/11 03:43:48;;;;;;;4.03;1.80;;;;;;;;;;5014421;28;20053;-67
2021/12/11 03:46:16;;;;;;;4.20;1.75;;;;;;;;;;5014333;28;20205;-67
2021/12/11 03:48:47;;;;;;;4.13;2.00;;;;;;;;;;5014391;28;20056;-66
2021/12/11 03:51:17;;;;;;;5.50;1.80;;;;;;;;;;5014195;28;20060;-65
2021/12/11 03:53:45;;;;;;;4.07;1.80;;;;;;;;;;5014106;28;20046;-65
2021/12/11 03:56:14;;;;;;;4.55;1.95;;;;;;;;;;5014173;28;20046;-66
2021/12/11 03:58:48;;;;;;;3.45;2.10;;;;;;;;;;5013989;28;20049;-67
2021/12/11 04:01:22;;;;;;;3.85;1.92;;;;;;;;;;5014158;28;20054;-67
2021/12/11 04:03:50;;;;;;;4.75;2.20;;;;;;;;;;5014005;28;20066;-66
2021/12/11 04:06:19;;;;;;;4.50;2.20;;;;;;;;;;5014023;28;20056;-67
2021/12/11 04:08:48;;;;;;;6.18;2.30;;;;;;;;;;5013769;28;20509;-67
2021/12/11 04:11:17;;;;;;;4.82;2.80;;;;;;;;;;5013784;28;20046;-67
2021/12/11 04:13:46;;;;;;;4.50;2.17;;;;;;;;;;5014000;28;20058;-66
2021/12/11 04:16:15;;;;;;;5.43;2.28;;;;;;;;;;5013753;28;20129;-67
2021/12/11 04:18:44;;;;;;;3.90;2.15;;;;;;;;;;5013683;28;20050;-66
2021/12/11 04:21:12;;;;;;;4.40;2.15;;;;;;;;;;5014204;28;20049;-66
2021/12/11 04:23:39;;;;;;;4.00;2.17;;;;;;;;;;5013738;28;20422;-67
2021/12/11 04:26:07;;;;;;;4.78;2.45;;;;;;;;;;5013468;28;20050;-67
2021/12/11 04:28:36;;;;;;;6.60;2.30;;;;;;;;;;5013382;28;20054;-66
2021/12/11 04:31:15;;;;;;;4.93;2.20;;;;;;;;;;5013395;28;20128;-66
2021/12/11 04:33:49;;;;;;;3.90;2.05;;;;;;;;;;5013388;28;20141;-67
2021/12/11 04:36:19;;;;;;;7.13;2.30;;;;;;;;;;5013318;28;20056;-67
2021/12/11 04:38:47;;;;;;;3.90;2.17;;;;;;;;;;5013692;28;20430;-67
2021/12/11 04:41:18;;;;;;;4.88;2.20;;;;;;;;;;5013455;28;20112;-66
2021/12/11 04:43:47;;;;;;;4.82;2.33;;;;;;;;;;5013388;28;20481;-66
2021/12/11 04:46:15;;;;;;;5.22;2.22;;;;;;;;;;5013547;28;20510;-67
2021/12/11 04:48:54;;;;;;;4.65;2.20;;;;;;;;;;5012945;28;20100;-66
2021/12/11 04:51:27;;;;;;;4.15;2.40;;;;;;;;;;5012896;28;20105;-67
2021/12/11 04:54:04;;;;;;;7.53;2.45;;;;;;;;;;5013337;28;20434;-66
2021/12/11 04:57:04;;;;;;;4.68;2.67;;;;;;;;;;5013475;28;20120;-66
2021/12/11 04:59:45;;;;;;;6.88;2.40;;;;;;;;;;5013562;28;20407;-66
2021/12/11 05:02:44;;;;;;;5.05;2.38;;;;;;;;;;5012701;28;20069;-65
2021/12/11 05:05:20;;;;;;;5.25;2.88;;;;;;;;;;5012677;28;20458;-66
2021/12/11 05:08:01;;;;;;;6.10;2.13;;;;;;;;;;5012619;28;20077;-65
2021/12/11 05:10:36;;;;;;;;;;;;;;;;;;5013342;28;20124;-66
2021/12/11 05:13:03;;;;;;;5.38;2.40;;;;;;;;;;5012832;28;20275;-66
2021/12/11 05:15:34;;;;;;;4.10;2.22;;;;;;;;;;5012699;28;20173;-65
2021/12/11 05:18:02;;;;;;;3.65;2.17;;;;;;;;;;5012218;28;20061;-66
2021/12/11 05:20:33;;;;;;;4.63;2.20;;;;;;;;;;5012307;28;20064;-66
2021/12/11 05:23:00;;;;;;;7.15;2.83;;;;;;;;;;5012378;28;20506;-66
2021/12/11 05:25:27;;;;;;;5.65;2.45;;;;;;;;;;5012352;28;20065;-65
2021/12/11 05:27:55;;;;;;;5.13;2.50;;;;;;;;;;5012396;28;20050;-66
2021/12/11 05:30:26;;;;;;;3.92;2.05;;;;;;;;;;5012439;28;20074;-66
2021/12/11 05:32:56;;;;;;;5.15;2.47;;;;;;;;;;5012118;28;20499;-66
2021/12/11 05:35:24;;;;;;;4.68;2.28;;;;;;;;;;5012054;28;20050;-66
2021/12/11 05:37:52;;;;;;;4.43;2.15;;;;;;;;;;5012061;28;20057;-66
2021/12/11 05:40:21;;;;;;;4.90;2.30;;;;;;;;;;5012263;28;20050;-66
2021/12/11 05:42:49;;;;;;;3.88;2.30;;;;;;;;;;5011956;28;20045;-66
2021/12/11 05:45:17;;;;;;;4.68;2.30;;;;;;;;;;5012173;28;20052;-66
2021/12/11 05:47:44;;;;;;;4.47;2.17;;;;;;;;;;5011723;28;20138;-66
2021/12/11 05:50:16;;;;;;;5.40;2.50;;;;;;;;;;5011944;28;20502;-66
2021/12/11 05:52:44;;;;;;;5.43;2.20;;;;;;;;;;5011910;28;20046;-66
2021/12/11 05:55:16;;;;;;;5.72;2.17;;;;;;;;;;5012227;28;20147;-66
2021/12/11 05:57:50;;;;;;;5.38;2.00;;;;;;;;;;5011845;28;20053;-66
2021/12/11 06:00:18;;;;;;;4.15;2.13;;;;;;;;;;5011612;28;20053;-66
2021/12/11 06:02:45;;;;;;;7.05;2.22;;;;;;;;;;5011786;28;20046;-66
2021/12/11 06:05:12;;;;;;;6.88;2.30;;;;;;;;;;5011827;28;20046;-66
2021/12/11 06:07:43;;;;;;;5.45;2.38;;;;;;;;;;5011414;28;20129;-66
2021/12/11 06:10:14;;;;;;;5.50;2.08;;;;;;;;;;5012315;28;20510;-66
2021/12/11 06:12:42;;;;;;;5.15;2.17;;;;;;;;;;5011755;28;20058;-66
2021/12/11 06:15:10;;;;;;;5.60;2.15;;;;;;;;;;5011671;28;20406;-66
2021/12/11 06:17:38;;;;;;;4.65;2.58;;;;;;;;;;5011478;28;20054;-66
2021/12/11 06:20:09;;;;;;;5.22;2.28;;;;;;;;;;5015440;28;20058;-66
2021/12/11 06:22:37;;;;;;;5.45;2.60;;;;;;;;;;5015657;28;20079;-67
2021/12/11 06:25:08;;;;;;;6.47;2.40;;;;;;;;;;5015422;28;20046;-65
2021/12/11 06:27:37;;;;;;;;;;;;;;;;;;5015690;28;20487;-65
2021/12/11 06:30:06;;;;;;;4.40;2.22;;;;;;;;;;5015608;28;20289;-66
2021/12/11 06:32:33;;;;;;;5.47;2.60;;;;;;;;;;5015523;28;20129;-65
2021/12/11 06:35:06;;;;;;;4.63;2.15;;;;;;;;;;5015554;28;20495;-65
2021/12/11 06:37:33;;;;;;;5.15;2.75;;;;;;;;;;5015906;28;20054;-65
2021/12/11 06:40:00;;;;;;;6.00;2.50;;;;;;;;;;5015344;28;20062;-65
2021/12/11 06:42:27;;;;;;;5.15;2.58;;;;;;;;;;5015322;28;20399;-65
2021/12/11 06:44:55;;;;;;;5.07;2.50;;;;;;;;;;5015101;28;20055;-65
2021/12/11 06:47:22;;;;;;;5.35;2.72;;;;;;;;;;5015270;28;20049;-65
2021/12/11 06:49:49;;;;;;;7.78;2.65;;;;;;;;;;5014889;28;20056;-65
2021/12/11 06:52:19;;;;;;;6.30;2.47;;;;;;;;;;5015012;28;20519;-65
2021/12/11 06:54:47;;;;;;;8.03;2.87;;;;;;;;;;5015598;28;20038;-65
2021/12/11 06:57:14;;;;;;;4.75;2.70;;;;;;;;;;5015087;28;20050;-65
2021/12/11 06:59:41;;;;;;;5.47;2.53;;;;;;;;;;5014579;28;20061;-65
2021/12/11 07:02:09;;;;;;;5.80;2.63;;;;;;;;;;5014909;28;20050;-66
2021/12/11 07:04:37;;;;;;;6.63;2.50;;;;;;;;;;5014728;28;20427;-65
2021/12/11 07:07:05;;;;;;;5.82;2.78;;;;;;;;;;5014908;28;20467;-65
2021/12/11 07:09:32;;;;;;;6.93;2.88;;;;;;;;;;5014455;28;20061;-65
2021/12/11 07:12:00;;;;;;;4.43;2.15;;;;;;;;;;5014574;28;20042;-65
2021/12/11 07:14:30;;;;;;;4.80;2.60;;;;;;;;;;5015241;28;20045;-65
2021/12/11 07:16:58;;;;;;;5.43;2.88;;;;;;;;;;5015105;28;20057;-65
2021/12/11 07:19:26;;;;;;;5.45;2.38;;;;;;;;;;5014172;28;20049;-65
2021/12/11 07:21:54;;;;;;;5.15;2.80;;;;;;;;;;5014395;28;20056;-65
2021/12/11 07:24:27;;;;;;;5.43;2.70;;;;;;;;;;5014754;28;20496;-65
2021/12/11 07:26:54;;;;;;;5.32;2.78;;;;;;;;;;5014518;28;20158;-65
2021/12/11 07:29:22;;;;;;;4.22;2.33;;;;;;;;;;5013422;28;20407;-65
2021/12/11 07:31:50;;;;;;;4.97;2.30;;;;;;;;;;5014502;28;20056;-65
2021/12/11 07:34:17;;;;;;;5.68;2.53;;;;;;;;;;5014642;28;20052;-65
2021/12/11 07:36:47;;;;;;;5.18;2.72;;;;;;;;;;5014623;28;20411;-65
2021/12/11 07:39:16;;;;;;;5.80;2.60;;;;;;;;;;5014234;28;20050;-66
2021/12/11 07:41:44;;;;;;;4.75;2.42;;;;;;;;;;5014455;28;20053;-65
2021/12/11 07:44:11;;;;;;;4.40;2.22;;;;;;;;;;5014389;28;20056;-64
2021/12/11 07:46:39;;;;;;;4.85;2.60;;;;;;;;;;5014081;28;20056;-65
2021/12/11 07:49:07;;;;;;;4.90;2.40;;;;;;;;;;5014540;28;20654;-66
2021/12/11 07:51:37;;;;;;;5.05;2.25;;;;;;;;;;5014077;28;20107;-66
2021/12/11 07:54:06;;;;;;;5.30;2.70;;;;;;;;;;5014271;28;20041;-65
2021/12/11 07:56:33;;;;;;;5.38;2.10;;;;;;;;;;5013948;28;20042;-65
2021/12/11 07:59:03;;;;;;;4.18;2.17;;;;;;;;;;5013417;28;20052;-65
2021/12/11 08:01:34;;;;;;;3.88;2.05;;;;;;;;;;5013755;28;20136;-66
2021/12/11 08:04:01;;;;;;;4.80;2.10;;;;;;;;;;5013296;28;20042;-65
2021/12/11 08:06:29;;;;;;;5.32;2.50;;;;;;;;;;5013696;28;20050;-65
2021/12/11 08:08:56;;;;;;;4.60;2.20;;;;;;;;;;5013676;28;20052;-66
2021/12/11 08:11:28;;;;;;;4.55;2.50;;;;;;;;;;5013663;28;20049;-66
2021/12/11 08:13:57;;;;;;;4.53;2.35;;;;;;;;;;5013745;28;20061;-65
2021/12/11 08:16:33;;;;;;;5.53;2.70;;;;;;;;;;5013369;28;20046;-66
2021/12/11 08:19:00;;;;;;;6.85;2.50;;;;;;;;;;5013843;28;20042;-68
2021/12/11 08:21:28;;;;;;;4.90;2.65;;;;;;;;;;5013665;28;20052;-67
2021/12/11 08:23:56;;;;;;;5.13;2.35;;;;;;;;;;5013705;28;20041;-65
2021/12/11 08:26:26;;;;;;;5.85;2.88;;;;;;;;;;5013255;28;20054;-66
2021/12/11 08:28:54;;;;;;;5.13;2.70;;;;;;;;;;5013097;28;20050;-66
2021/12/11 08:31:22;;;;;;;5.40;2.72;;;;;;;;;;5013531;28;20125;-66
2021/12/11 08:33:49;;;;;;;6.05;2.55;;;;;;;;;;5013411;28;20132;-66
2021/12/11 08:36:17;;;;;;;7.10;3.35;;;;;;;;;;5013440;28;20462;-65
2021/12/11 08:38:44;;;;;;;6.15;3.38;;;;;;;;;;5013265;28;20056;-66
2021/12/11 08:41:13;;;;;;;6.10;3.17;;;;;;;;;;5012487;28;20138;-66
2021/12/11 08:43:44;;;;;;;7.53;3.47;;;;;;;;;;5013030;28;20050;-64
2021/12/11 08:46:14;;;;;;;7.22;3.70;;;;;;;;;;5013320;28;20054;-66
2021/12/11 08:48:45;;;;;;;7.10;3.78;;;;;;;;;;5012842;28;20128;-66
2021/12/11 08:51:17;;;;;;;7.07;3.65;;;;;;;;;;5013455;28;20053;-66
2021/12/11 08:53:45;;;;;;;6.95;3.60;;;;;;;;;;5013148;28;20052;-66
2021/12/11 08:56:13;;;;;;;7.65;3.83;;;;;;;;;;5013112;28;20052;-66
2021/12/11 08:58:44;;;;;;;9.82;3.85;;;;;;;;;;5012800;28;20538;-68
2021/12/11 09:01:17;;;;;;;7.18;4.00;;;;;;;;;;5013183;28;20077;-65
2021/12/11 09:03:47;;;;;;;7.72;3.97;;;;;;;;;;5012855;28;20125;-65
2021/12/11 09:06:18;;;;;;;8.60;4.55;;;;;;;;;;5012785;28;20116;-65
2021/12/11 09:08:52;;;;;;;5.78;3.55;;;;;;;;;;5012917;28;20154;-65
2021/12/11 09:11:24;;;;;;;5.10;3.47;;;;;;;;;;5012727;28;20053;-64
2021/12/11 09:13:57;;;;;;;6.78;3.50;;;;;;;;;;5012780;28;20050;-68
2021/12/11 09:16:27;;;;;;;7.85;4.45;;;;;;;;;;5012291;28;20081;-65
2021/12/11 09:18:59;;;;;;;7.00;3.72;;;;;;;;;;5012761;28;20072;-66
2021/12/11 09:21:30;;;;;;;6.70;3.80;;;;;;;;;;5012484;28;20050;-65
2021/12/11 09:24:07;;;;;;;8.95;5.18;;;;;;;;;;5012644;28;20128;-67
2021/12/11 09:26:39;;;;;;;6.43;4.18;;;;;;;;;;5012511;28;20455;-66
2021/12/11 09:29:16;;;;;;;6.35;4.20;;;;;;;;;;5012552;28;20387;-66
2021/12/11 09:31:47;;;;;;;6.55;4.03;;;;;;;;;;5012397;28;20100;-66
2021/12/11 09:34:15;;;;;;;;;;;;;;;;;;5012805;28;20056;-67
2021/12/11 09:36:46;;;;;;;8.18;4.65;;;;;;;;;;5012412;28;20282;-67
2021/12/11 09:39:16;;;;;;;7.53;4.55;;;;;;;;;;5012380;28;20050;-67
2021/12/11 09:41:43;;;;;;;7.97;4.67;;;;;;;;;;5012520;28;20052;-67
2021/12/11 09:44:15;;;;;;;7.63;4.63;;;;;;;;;;5012860;28;20069;-67
2021/12/11 09:46:45;;;;;;;6.85;4.32;;;;;;;;;;5012265;28;20076;-66
2021/12/11 09:49:15;;;;;;;8.30;5.03;;;;;;;;;;5012106;28;20052;-66
2021/12/11 09:51:46;;;;;;;7.57;4.72;;;;;;;;;;5012115;28;20050;-66
2021/12/11 09:54:16;;;;;;;9.48;5.95;;;;;;;;;;5012351;28;20045;-66
2021/12/11 09:56:45;;;;;;;8.35;5.07;;;;;;;;;;5012176;28;20141;-66
2021/12/11 09:59:18;;;;;;;7.20;4.70;;;;;;;;;;5011843;28;20060;-66
2021/12/11 10:01:48;;;;;;;8.05;4.63;;;;;;;;;;5012234;28;20073;-65
2021/12/11 10:04:18;;;;;;;9.73;5.47;;;;;;;;;;5012527;28;20124;-67
2021/12/11 10:07:02;;;;;;;8.73;4.90;;;;;;;;;;5012153;28;20054;-66
2021/12/11 10:09:35;;;;;;;8.55;4.97;;;;;;;;;;5011992;28;20046;-66
2021/12/11 10:12:07;;;;;;;8.55;5.13;;;;;;;;;;5012097;28;20489;-66
2021/12/11 10:14:39;;;;;;;9.63;5.60;;;;;;;;;;5012476;28;20092;-68
2021/12/11 10:17:10;;;;;;;7.82;5.13;;;;;;;;;;5011977;28;20133;-65
2021/12/11 10:19:39;;;;;;;9.55;5.50;;;;;;;;;;5011869;28;20069;-68
2021/12/11 10:22:14;;;;;;;8.70;5.63;;;;;;;;;;5011512;28;20049;-65
2021/12/11 10:24:43;;;;;;;8.38;5.30;;;;;;;;;;5011765;28;20415;-65
2021/12/11 10:27:14;;;;;;;9.00;5.88;;;;;;;;;;5012254;28;20418;-66
2021/12/11 10:29:45;;;;;;;12.27;6.70;;;;;;;;;;5012145;28;20050;-66
2021/12/11 10:32:16;;;;;;;9.75;5.53;;;;;;;;;;5011746;28;20100;-64
2021/12/11 10:34:43;;;;;;;;;;;;;;;;;;5012706;28;20052;-66
2021/12/11 10:37:15;;;;;;;9.60;4.93;;;;;;;;;;5011742;28;20043;-66
2021/12/11 10:39:45;;;;;;;8.85;5.13;;;;;;;;;;5011889;28;20138;-65
2021/12/11 10:42:14;;;;;;;10.45;5.30;;;;;;;;;;5012016;28;20085;-67
2021/12/11 10:44:45;;;;;;;8.68;4.80;;;;;;;;;;5011574;28;20058;-65
2021/12/11 10:47:13;;;;;;;;;;;;;;;;;;5012261;28;20077;-66
2021/12/11 10:49:42;;;;;;;8.90;5.05;;;;;;;;;;5011699;28;20297;-66
2021/12/11 10:52:15;;;;;;;7.85;4.20;;;;;;;;;;5011435;28;20046;-67
2021/12/11 10:54:43;;;;;;;8.77;4.57;;;;;;;;;;5011552;28;20046;-67
2021/12/11 10:57:11;;;;;;;9.65;4.55;;;;;;;;;;5011521;28;20046;-66
2021/12/11 10:59:43;;;;;;;8.95;4.18;;;;;;;;;;5011701;28;20137;-65
2021/12/11 11:02:13;;;;;;;9.27;4.43;;;;;;;;;;5011464;28;20054;-66
2021/12/11 11:04:45;;;;;;;8.17;5.20;;;;;;;;;;5012977;28;20052;-66
2021/12/11 11:07:12;;;;;;;7.75;4.30;;;;;;;;;;5015194;28;20130;-66
2021/12/11 11:09:40;;;;;;;7.18;4.00;;;;;;;;;;5015234;28;20099;-66
2021/12/11 11:12:11;;;;;;;11.18;5.88;;;;;;;;;;5015325;28;20050;-66
2021/12/11 11:14:38;;;;;;;10.40;5.13;;;;;;;;;;5015145;28;20049;-65
2021/12/11 11:17:10;;;;;;;10.50;6.25;;;;;;;;;;5014969;28;20416;-66
2021/12/11 11:19:40;;;;;;;9.85;5.95;;;;;;;;;;5014853;28;20058;-67
2021/12/11 11:22:12;;;;;;;9.35;5.00;;;;;;;;;;5014903;28;20045;-67
2021/12/11 11:24:44;;;;;;;8.15;4.65;;;;;;;;;;5015003;28;20380;-67
2021/12/11 11:27:12;;;;;;;8.07;5.00;;;;;;;;;;5015069;28;20046;-67
2021/12/11 11:29:43;;;;;;;8.38;4.38;;;;;;;;;;5014873;28;20050;-67
2021/12/11 11:32:15;;;;;;;11.18;5.88;;;;;;;;;;5015078;28;20054;-67
2021/12/11 11:34:43;;;;;;;9.27;5.35;;;;;;;;;;5014565;28;20072;-67
2021/12/11 11:37:12;;;;;;;9.15;5.70;;;;;;;;;;5014511;28;20053;-67
2021/12/11 11:39:40;;;;;;;8.82;5.47;;;;;;;;;;5014889;28;20441;-67
2021/12/11 11:42:12;;;;;;;10.18;5.45;;;;;;;;;;5014641;28;20052;-66
2021/12/11 11:44:44;;;;;;;10.73;6.13;;;;;;;;;;5014733;28;20049;-65
2021/12/11 11:47:14;;;;;;;8.63;6.00;;;;;;;;;;5014515;28;20115;-67
2021/12/11 11:49:42;;;;;;;9.23;5.18;;;;;;;;;;5014337;28;20056;-65
2021/12/11 11:52:12;;;;;;;10.50;5.47;;;;;;;;;;5014376;28;20415;-66
2021/12/11 11:54:42;;;;;;;7.93;5.20;;;;;;;;;;5014177;28;20057;-67
2021/12/11 11:57:13;;;;;;;10.93;5.72;;;;;;;;;;5014400;28;20056;-65
2021/12/11 11:59:41;;;;;;;8.65;5.40;;;;;;;;;;5014211;28;20422;-67
2021/12/11 12:02:11;;;;;;;9.43;5.50;;;;;;;;;;5014588;28;20454;-66
2021/12/11 12:04:40;;;;;;;9.48;5.70;;;;;;;;;;5014072;28;20046;-66
2021/12/11 12:07:09;;;;;;;11.38;5.65;;;;;;;;;;5013952;28;20075;-65
2021/12/11 12:09:40;;;;;;;9.45;5.43;;;;;;;;;;5014267;28;20131;-66
2021/12/11 12:12:09;;;;;;;;;;;;;;;;;;5014542;28;20050;-67
2021/12/11 12:14:37;;;;;;;8.75;5.18;;;;;;;;;;5013811;28;19927;-64
2021/12/11 12:17:07;;;;;;;8.95;5.63;;;;;;;;;;5014269;28;20046;-66
2021/12/11 12:19:34;;;;;;;9.30;5.78;;;;;;;;;;5013743;28;20057;-67
2021/12/11 12:22:06;;;;;;;11.15;6.35;;;;;;;;;;5013785;28;20052;-66
2021/12/11 12:24:38;;;;;;;11.68;6.43;;;;;;;;;;5013791;28;20159;-66
2021/12/11 12:27:08;;;;;;;10.18;6.70;;;;;;;;;;5013762;28;20053;-65
2021/12/11 12:29:36;;;;;;;9.43;5.53;;;;;;;;;;5013937;28;20506;-65
2021/12/11 12:32:08;;;;;;;8.75;5.70;;;;;;;;;;5013452;28;20503;-64
2021/12/11 12:34:35;;;;;;;9.88;5.63;;;;;;;;;;5013371;28;20050;-65
2021/12/11 12:37:07;;;;;;;7.97;5.43;;;;;;;;;;5013725;28;20050;-66
2021/12/11 12:39:38;;;;;;;8.80;5.72;;;;;;;;;;5013422;28;20050;-65
2021/12/11 12:42:18;;;;;;;8.73;5.07;;;;;;;;;;5013490;28;20522;-65
2021/12/11 12:44:51;;;;;;;8.55;5.80;;;;;;;;;;5013640;28;20054;-66
2021/12/11 12:47:23;;;;;;;8.30;5.38;;;;;;;;;;5013523;28;20049;-66
2021/12/11 12:49:53;;;;;;;12.57;6.75;;;;;;;;;;5013307;28;20133;-66
2021/12/11 12:52:31;;;;;;;12.20;6.93;;;;;;;;;;5013419;28;20060;-65
2021/12/11 12:55:00;;;;;;;11.23;6.15;;;;;;;;;;5013284;28;20415;-65
2021/12/11 12:57:31;;;;;;;14.32;7.82;;;;;;;;;;5013355;28;20285;-65
2021/12/11 13:00:06;;;;;;;10.18;6.18;;;;;;;;;;5013130;28;20100;-65
2021/12/11 13:02:38;;;;;;;10.02;5.90;;;;;;;;;;5013022;28;20514;-66
2021/12/11 13:05:11;;;;;;;10.85;5.93;;;;;;;;;;5012969;28;20138;-67
2021/12/11 13:07:40;;;;;;;10.05;6.07;;;;;;;;;;5013002;28;20054;-65
2021/12/11 13:10:11;;;;;;;10.23;6.50;;;;;;;;;;5012817;28;20060;-67
2021/12/11 13:12:44;;;;;;;10.68;5.97;;;;;;;;;;5012608;28;20062;-65
2021/12/11 13:15:15;;;;;;;8.45;5.38;;;;;;;;;;5013213;28;20057;-65
2021/12/11 13:17:45;;;;;;;9.40;5.80;;;;;;;;;;5012725;28;20418;-63
2021/12/11 13:20:17;;;;;;;10.60;6.15;;;;;;;;;;5013348;28;20576;-64
2021/12/11 13:22:48;;;;;;;12.25;6.47;;;;;;;;;;5013175;28;20108;-65
2021/12/11 13:25:19;;;;;;;9.57;6.25;;;;;;;;;;5013310;28;20422;-73
2021/12/11 13:27:49;;;;;;;9.40;5.75;;;;;;;;;;5012347;28;20068;-66
2021/12/11 13:30:19;;;;;;;10.25;6.05;;;;;;;;;;5012678;28;20052;-66
2021/12/11 13:32:47;;;;;;;11.48;6.68;;;;;;;;;;5012976;28;20050;-73
2021/12/11 13:35:18;;;;;;;11.40;5.97;;;;;;;;;;5012637;28;20088;-70
2021/12/11 13:37:47;;;;;;;11.45;6.60;;;;;;;;;;5011400;28;20065;-64
2021/12/11 13:40:16;;;;;;;9.95;6.03;;;;;;;;;;5010412;28;20119;-66
2021/12/11 13:42:45;;;;;;;11.80;6.78;;;;;;;;;;5010655;28;20046;-66
2021/12/11 13:45:16;;;;;;;13.30;7.60;;;;;;;;;;5014725;28;20490;-67
2021/12/11 13:47:44;;;;;;;11.98;6.63;;;;;;;;;;5030403;28;20418;-64
2021/12/11 13:50:16;;;;;;;10.77;6.50;;;;;;;;;;5029749;28;20064;-64
2021/12/11 13:52:44;;;;;;;12.38;6.63;;;;;;;;;;5030561;28;20041;-67
2021/12/11 13:55:13;;;;;;;13.27;7.43;;;;;;;;;;5030587;28;20049;-66
2021/12/11 13:57:40;;;;;;;11.77;7.10;;;;;;;;;;5030144;28;20048;-66
2021/12/11 14:00:12;;;;;;;12.88;6.88;;;;;;;;;;5020744;22;20062;-68
2021/12/11 14:02:39;;;;;;;14.00;7.60;;;;;;;;;;4997363;28;20473;-69
2021/12/11 14:05:07;;;;;;;13.68;8.00;;;;;;;;;;4996659;28;20060;-68
2021/12/11 14:07:37;;;;;;;12.80;7.72;;;;;;;;;;4995879;28;20046;-67
2021/12/11 14:10:19;;;;;;;13.27;7.82;;;;;;;;;;4996208;28;20067;-69
2021/12/11 14:12:49;;;;;;;13.95;8.32;;;;;;;;;;4996420;28;20046;-68
2021/12/11 14:15:17;;;;;;;14.30;8.07;;;;;;;;;;4997962;28;20065;-70
2021/12/11 14:17:44;;;;;;;14.10;8.68;;;;;;;;;;4995516;28;20046;-68
2021/12/11 14:20:13;;;;;;;13.65;7.93;;;;;;;;;;4995761;28;20082;-69
2021/12/11 14:22:41;;;;;;;14.07;8.32;;;;;;;;;;4996544;28;20069;-68
2021/12/11 14:25:12;;;;;;;19.58;9.48;;;;;;;;;;4995513;28;20046;-71
2021/12/11 14:27:39;;;;;;;15.88;8.38;;;;;;;;;;4995358;28;20050;-70
2021/12/11 14:30:10;;;;;;;14.98;8.05;;;;;;;;;;4994625;28;20085;-69
2021/12/11 14:32:42;;;;;;;14.45;8.63;;;;;;;;;;4994694;28;20420;-68
2021/12/11 14:35:10;;;;;;;17.27;9.57;;;;;;;;;;4996728;28;20054;-70
2021/12/11 14:37:37;;;;;;;17.88;9.27;;;;;;;;;;4995386;28;20061;-68
2021/12/11 14:40:05;;;;;;;18.00;8.82;;;;;;;;;;4998290;28;20057;-68
2021/12/11 14:42:33;;;;;;;15.15;8.73;;;;;;;;;;4998333;28;20041;-68
2021/12/11 14:45:06;;;;;;;16.83;8.48;;;;;;;;;;4998900;28;20058;-68
2021/12/11 14:47:34;;;;;;;21.80;10.07;;;;;;;;;;5001092;28;20054;-67
2021/12/11 14:50:01;;;;;;;18.73;9.57;;;;;;;;;;4999955;28;20060;-69
2021/12/11 14:52:30;;;;;;;18.13;10.48;;;;;;;;;;4999377;28;20046;-68
2021/12/11 14:55:01;;;;;;;18.88;9.23;;;;;;;;;;4998607;28;20049;-68
2021/12/11 14:57:28;;;;;;;16.60;9.60;;;;;;;;;;4998836;28;20073;-69
2021/12/11 15:00:00;;;;;;;20.27;10.60;;;;;;;;;;5000178;28;20054;-69
2021/12/11 15:02:31;;;;;;;17.65;9.63;;;;;;;;;;5000800;28;20562;-67